Time;durP1;ratioP1;P1;durP2;ratioP2;P2;SDS_P1;SDS_P2;PMS_P1;PMS_P2;Temp;Humidity;BMP_temperature;BMP_pressure;BME280_temperature;BME280_humidity;BME280_pressure;Samples;Min_cycle;Max_cycle;Signal;HPM_P1;HPM_P2
2020/12/07 00:00:42;;;;;;;3.92;3.53;;;16.10;54.40;;;;;;5074525;28;20023;-69
2020/12/07 00:03:08;;;;;;;5.90;3.83;;;16.00;54.40;;;;;;5074106;28;20040;-69
2020/12/07 00:05:33;;;;;;;4.50;3.85;;;16.00;54.40;;;;;;5074430;28;20013;-69
2020/12/07 00:08:01;;;;;;;4.10;3.70;;;16.00;54.40;;;;;;5074435;28;20062;-69
2020/12/07 00:10:26;;;;;;;4.00;3.60;;;16.00;54.50;;;;;;5074311;28;20063;-69
2020/12/07 00:12:52;;;;;;;4.72;3.80;;;16.00;54.60;;;;;;5074293;28;20024;-69
2020/12/07 00:15:18;;;;;;;5.03;3.67;;;16.00;54.60;;;;;;5074215;28;20055;-69
2020/12/07 00:17:43;;;;;;;4.00;3.42;;;16.00;54.70;;;;;;5074193;28;20114;-69
2020/12/07 00:20:10;;;;;;;5.15;3.97;;;15.90;54.70;;;;;;5073872;28;20505;-69
2020/12/07 00:22:36;;;;;;;3.70;3.33;;;15.90;54.70;;;;;;5073753;28;20028;-69
2020/12/07 00:25:03;;;;;;;3.97;3.33;;;15.90;54.80;;;;;;5073565;28;20028;-69
2020/12/07 00:27:30;;;;;;;4.55;3.65;;;15.90;54.80;;;;;;5073884;28;20028;-69
2020/12/07 00:29:56;;;;;;;6.07;3.58;;;15.90;54.80;;;;;;5074773;27;20080;-69
2020/12/07 00:32:22;;;;;;;4.25;3.83;;;15.80;54.80;;;;;;5073898;28;20029;-69
2020/12/07 00:34:49;;;;;;;4.50;3.65;;;15.80;54.90;;;;;;5073768;28;20077;-69
2020/12/07 00:37:16;;;;;;;4.32;3.60;;;15.80;54.90;;;;;;5073943;28;20028;-69
2020/12/07 00:39:41;;;;;;;3.50;3.20;;;15.80;55.00;;;;;;5073722;28;20036;-69
2020/12/07 00:42:10;;;;;;;4.57;3.47;;;15.80;55.10;;;;;;5073293;28;20386;-69
2020/12/07 00:44:36;;;;;;;3.70;3.22;;;15.80;55.10;;;;;;5073588;28;20129;-69
2020/12/07 00:47:03;;;;;;;4.35;3.65;;;15.70;55.10;;;;;;5073540;28;20047;-68
2020/12/07 00:49:29;;;;;;;4.53;3.30;;;15.70;55.10;;;;;;5073589;28;20036;-69
2020/12/07 00:51:54;;;;;;;4.43;3.30;;;15.70;55.20;;;;;;5073504;28;20024;-69
2020/12/07 00:54:22;;;;;;;3.75;3.20;;;15.70;55.20;;;;;;5073475;28;20016;-69
2020/12/07 00:56:52;;;;;;;3.45;3.15;;;15.70;55.20;;;;;;5073314;28;20067;-69
2020/12/07 00:59:18;;;;;;;3.88;2.90;;;15.70;55.30;;;;;;5073421;28;20099;-69
2020/12/07 01:01:43;;;;;;;5.30;3.10;;;15.60;55.30;;;;;;5073316;28;20112;-69
2020/12/07 01:04:09;;;;;;;3.20;2.90;;;15.60;55.30;;;;;;5073247;28;20028;-69
2020/12/07 01:06:34;;;;;;;3.33;2.60;;;15.70;55.40;;;;;;5073240;28;20091;-69
2020/12/07 01:09:00;;;;;;;4.05;3.55;;;15.60;55.40;;;;;;5072934;28;20555;-69
2020/12/07 01:11:26;;;;;;;5.20;3.55;;;15.60;55.40;;;;;;5072896;28;20031;-69
2020/12/07 01:13:51;;;;;;;4.05;3.15;;;15.60;55.50;;;;;;5072876;28;20123;-69
2020/12/07 01:16:21;;;;;;;4.30;3.45;;;15.60;55.50;;;;;;5073064;28;20021;-69
2020/12/07 01:18:48;;;;;;;3.47;2.80;;;15.60;55.60;;;;;;5073081;28;20334;-69
2020/12/07 01:21:15;;;;;;;3.42;3.00;;;15.70;55.60;;;;;;5072764;28;20462;-69
2020/12/07 01:23:41;;;;;;;3.95;3.22;;;15.50;55.50;;;;;;5072920;28;20032;-69
2020/12/07 01:26:08;;;;;;;3.95;3.10;;;15.50;55.60;;;;;;5072947;28;20025;-69
2020/12/07 01:28:34;;;;;;;3.60;3.03;;;15.50;55.60;;;;;;5072734;28;20471;-69
2020/12/07 01:31:00;;;;;;;4.05;3.35;;;15.50;55.60;;;;;;5073378;28;20098;-69
2020/12/07 01:33:25;;;;;;;3.85;2.95;;;15.50;55.70;;;;;;5072782;28;20482;-69
2020/12/07 01:35:51;;;;;;;3.42;2.80;;;15.50;55.70;;;;;;5072167;28;20047;-69
2020/12/07 01:38:17;;;;;;;4.03;3.08;;;15.50;55.70;;;;;;5072086;28;20028;-69
2020/12/07 01:40:43;;;;;;;3.70;3.13;;;15.50;55.80;;;;;;5072797;28;20083;-69
2020/12/07 01:43:08;;;;;;;3.30;2.80;;;15.50;55.80;;;;;;5072458;28;20467;-69
2020/12/07 01:45:34;;;;;;;3.33;2.88;;;15.50;55.90;;;;;;5072748;28;20020;-69
2020/12/07 01:48:00;;;;;;;3.25;2.92;;;15.40;55.90;;;;;;5072665;28;20107;-69
2020/12/07 01:50:27;;;;;;;2.97;2.67;;;15.40;55.90;;;;;;5072713;28;20449;-69
2020/12/07 01:52:53;;;;;;;3.72;3.25;;;15.40;55.90;;;;;;5072661;28;20039;-69
2020/12/07 01:55:19;;;;;;;3.60;2.63;;;15.40;56.00;;;;;;5072731;28;20023;-69
2020/12/07 01:57:45;;;;;;;3.47;2.90;;;15.40;56.00;;;;;;5072205;28;20021;-69
2020/12/07 02:00:10;;;;;;;3.67;2.90;;;15.40;56.00;;;;;;5072565;28;20031;-69
2020/12/07 02:02:36;;;;;;;3.80;2.90;;;15.40;56.00;;;;;;5072216;28;20064;-69
2020/12/07 02:05:02;;;;;;;2.63;2.42;;;15.40;56.10;;;;;;5072547;28;20533;-69
2020/12/07 02:07:28;;;;;;;3.63;2.83;;;15.40;56.10;;;;;;5072308;28;20036;-69
2020/12/07 02:09:53;;;;;;;2.75;2.53;;;15.30;56.10;;;;;;5072501;28;20021;-69
2020/12/07 02:12:19;;;;;;;4.07;2.72;;;15.30;56.10;;;;;;5072183;28;20098;-69
2020/12/07 02:14:44;;;;;;;3.20;2.72;;;15.30;56.10;;;;;;5072499;28;20044;-70
2020/12/07 02:17:10;;;;;;;3.20;2.60;;;15.30;56.20;;;;;;5072445;28;20100;-69
2020/12/07 02:19:35;;;;;;;2.65;2.40;;;15.30;56.20;;;;;;5072189;28;20028;-69
2020/12/07 02:22:01;;;;;;;2.78;2.50;;;15.30;56.20;;;;;;5072091;28;20103;-69
2020/12/07 02:24:26;;;;;;;3.10;2.80;;;15.30;56.20;;;;;;5072422;28;20389;-69
2020/12/07 02:26:52;;;;;;;2.80;2.50;;;15.30;56.30;;;;;;5072196;28;20017;-69
2020/12/07 02:29:18;;;;;;;2.55;2.25;;;15.20;56.30;;;;;;5073168;28;20029;-69
2020/12/07 02:31:43;;;;;;;3.60;2.78;;;15.20;56.30;;;;;;5072110;28;20024;-68
2020/12/07 02:34:09;;;;;;;3.85;2.28;;;15.20;56.40;;;;;;5071990;28;20021;-69
2020/12/07 02:36:35;;;;;;;3.15;2.60;;;15.20;56.40;;;;;;5072034;28;20071;-68
2020/12/07 02:39:01;;;;;;;2.70;2.50;;;15.20;56.40;;;;;;5072183;28;20386;-69
2020/12/07 02:41:27;;;;;;;2.72;2.50;;;15.20;56.50;;;;;;5071915;28;20029;-69
2020/12/07 02:43:52;;;;;;;3.05;2.60;;;15.20;56.40;;;;;;5071831;28;20047;-68
2020/12/07 02:46:18;;;;;;;2.78;2.50;;;15.10;56.40;;;;;;5072138;28;20356;-69
2020/12/07 02:48:44;;;;;;;2.70;2.47;;;15.20;56.60;;;;;;5074483;28;20035;-69
2020/12/07 02:51:09;;;;;;;2.63;2.30;;;15.10;56.50;;;;;;5075805;28;20013;-69
2020/12/07 02:53:35;;;;;;;4.25;2.55;;;15.10;56.60;;;;;;5075852;28;20021;-69
2020/12/07 02:56:00;;;;;;;2.42;2.05;;;15.10;56.60;;;;;;5075466;28;20025;-69
2020/12/07 02:58:26;;;;;;;2.97;2.17;;;15.10;56.60;;;;;;5075691;28;20024;-69
2020/12/07 03:00:52;;;;;;;3.10;2.63;;;15.10;56.60;;;;;;5075985;28;20051;-69
2020/12/07 03:03:17;;;;;;;3.05;2.33;;;15.10;56.60;;;;;;5075486;28;20110;-69
2020/12/07 03:05:43;;;;;;;2.47;2.28;;;15.10;56.70;;;;;;5075605;28;20023;-69
2020/12/07 03:08:08;;;;;;;3.42;2.55;;;15.10;56.70;;;;;;5075369;28;20024;-69
2020/12/07 03:10:34;;;;;;;2.65;2.30;;;15.10;56.70;;;;;;5075518;28;20468;-69
2020/12/07 03:12:59;;;;;;;2.47;2.20;;;15.10;56.70;;;;;;5075464;28;20017;-69
2020/12/07 03:15:25;;;;;;;3.20;2.20;;;15.10;56.80;;;;;;5057610;28;20479;-68
2020/12/07 03:17:50;;;;;;;2.83;2.50;;;15.00;56.80;;;;;;5075429;28;20024;-69
2020/12/07 03:20:16;;;;;;;2.50;2.30;;;15.00;56.80;;;;;;5075388;28;20019;-69
2020/12/07 03:22:42;;;;;;;2.83;2.40;;;15.00;56.80;;;;;;5056956;28;20033;-68
2020/12/07 03:25:07;;;;;;;2.45;2.25;;;15.00;56.80;;;;;;5075291;28;20020;-69
2020/12/07 03:27:33;;;;;;;2.28;2.05;;;14.90;56.80;;;;;;5075299;28;20013;-69
2020/12/07 03:29:58;;;;;;;2.40;2.20;;;15.00;56.90;;;;;;5075984;28;20040;-69
2020/12/07 03:32:31;;;;;;;2.08;1.90;;;15.00;56.80;;;;;;5075249;28;20374;-69
2020/12/07 03:35:03;;;;;;;2.70;2.10;;;15.00;56.90;;;;;;5075042;28;20370;-69
2020/12/07 03:37:28;;;;;;;3.08;2.38;;;15.00;56.90;;;;;;5075071;28;20025;-69
2020/12/07 03:39:54;;;;;;;2.08;1.90;;;15.00;56.90;;;;;;5075072;28;20533;-69
2020/12/07 03:42:20;;;;;;;2.58;2.33;;;14.90;56.90;;;;;;5074883;28;20016;-69
2020/12/07 03:44:45;;;;;;;2.55;2.33;;;14.90;56.90;;;;;;5074590;28;20032;-69
2020/12/07 03:47:11;;;;;;;2.58;1.95;;;;;;;;;;5074894;28;20028;-69
2020/12/07 03:49:37;;;;;;;2.75;2.20;;;14.90;56.40;;;;;;5074806;28;20479;-69
2020/12/07 03:52:02;;;;;;;2.30;2.10;;;14.90;57.10;;;;;;5074533;28;20020;-69
2020/12/07 03:54:28;;;;;;;3.13;2.35;;;14.90;57.10;;;;;;5074522;28;20032;-69
2020/12/07 03:56:53;;;;;;;2.60;2.13;;;14.90;57.10;;;;;;5074393;28;20025;-69
2020/12/07 03:59:19;;;;;;;2.05;1.90;;;14.90;57.20;;;;;;5073745;28;20033;-69
2020/12/07 04:01:45;;;;;;;2.42;2.03;;;14.90;57.20;;;;;;5074358;28;20056;-69
2020/12/07 04:04:15;;;;;;;2.08;1.80;;;14.90;57.30;;;;;;5074491;28;20064;-68
2020/12/07 04:06:42;;;;;;;1.83;1.63;;;14.80;57.30;;;;;;5074565;28;20091;-69
2020/12/07 04:09:08;;;;;;;2.30;1.77;;;14.90;57.40;;;;;;5074125;28;20032;-68
2020/12/07 04:11:33;;;;;;;2.03;1.83;;;14.80;57.40;;;;;;5074198;28;20108;-69
2020/12/07 04:13:59;;;;;;;2.10;1.90;;;14.80;58.10;;;;;;5073958;28;20048;-69
2020/12/07 04:16:28;;;;;;;2.20;2.00;;;14.90;57.50;;;;;;5074236;28;20107;-68
2020/12/07 04:18:54;;;;;;;2.42;2.20;;;14.90;57.50;;;;;;5074251;28;20028;-69
2020/12/07 04:21:19;;;;;;;1.85;1.67;;;14.90;57.50;;;;;;5073919;28;20028;-69
2020/12/07 04:23:45;;;;;;;2.10;1.90;;;14.80;57.40;;;;;;5074134;28;20040;-69
2020/12/07 04:26:10;;;;;;;1.92;1.65;;;14.80;57.50;;;;;;5074187;28;20017;-69
2020/12/07 04:28:36;;;;;;;2.45;2.22;;;14.80;57.50;;;;;;5074139;28;20028;-68
2020/12/07 04:31:02;;;;;;;1.85;1.70;;;14.80;57.50;;;;;;5074883;28;20071;-69
2020/12/07 04:33:27;;;;;;;1.70;1.60;;;14.80;57.50;;;;;;5073695;28;20082;-69
2020/12/07 04:35:53;;;;;;;1.88;1.70;;;14.80;57.50;;;;;;5073926;28;20056;-68
2020/12/07 04:38:18;;;;;;;3.20;1.92;;;14.80;57.50;;;;;;5073609;28;20127;-69
2020/12/07 04:40:44;;;;;;;1.85;1.67;;;14.80;57.50;;;;;;5073871;28;20032;-69
2020/12/07 04:43:11;;;;;;;2.55;1.90;;;14.80;57.60;;;;;;5073749;28;20033;-69
2020/12/07 04:45:36;;;;;;;2.30;2.10;;;14.80;57.60;;;;;;5073456;28;20048;-69
2020/12/07 04:48:02;;;;;;;2.28;1.92;;;14.80;57.60;;;;;;5073713;28;20067;-69
2020/12/07 04:50:31;;;;;;;1.75;1.48;;;14.80;57.60;;;;;;5073688;28;20042;-68
2020/12/07 04:52:57;;;;;;;2.20;1.98;;;14.80;57.70;;;;;;5073640;28;20028;-69
2020/12/07 04:55:23;;;;;;;1.55;1.42;;;14.80;57.70;;;;;;5073576;28;20016;-69
2020/12/07 04:57:49;;;;;;;2.25;2.05;;;14.70;57.60;;;;;;5073188;28;20048;-69
2020/12/07 05:00:15;;;;;;;2.13;1.85;;;14.80;57.70;;;;;;5073219;28;20349;-68
2020/12/07 05:02:49;;;;;;;2.15;1.77;;;14.80;57.80;;;;;;5073351;28;20035;-69
2020/12/07 05:05:14;;;;;;;1.70;1.60;;;14.80;58.30;;;;;;5073138;28;20472;-69
2020/12/07 05:07:40;;;;;;;2.00;1.70;;;14.80;57.90;;;;;;5073050;28;20154;-69
2020/12/07 05:10:12;;;;;;;1.67;1.58;;;14.90;58.10;;;;;;5073190;28;20024;-69
2020/12/07 05:12:45;;;;;;;1.70;1.50;;;14.90;57.60;;;;;;5073172;28;20028;-69
2020/12/07 05:15:13;;;;;;;2.08;1.90;;;14.90;58.00;;;;;;5073195;28;20021;-69
2020/12/07 05:17:39;;;;;;;2.38;1.98;;;15.00;57.90;;;;;;5072887;28;20024;-69
2020/12/07 05:20:06;;;;;;;2.17;1.65;;;15.00;57.90;;;;;;5072820;28;20024;-69
2020/12/07 05:22:34;;;;;;;2.08;1.88;;;15.00;57.80;;;;;;5072971;28;20052;-69
2020/12/07 05:25:05;;;;;;;1.50;1.40;;;15.00;57.80;;;;;;5073011;28;20028;-69
2020/12/07 05:27:32;;;;;;;1.33;1.23;;;15.00;57.80;;;;;;5072627;28;20036;-69
2020/12/07 05:32:32;;;;;;;2.10;1.60;;;15.00;58.00;;;;;;5072759;28;20028;-69
2020/12/07 05:34:59;;;;;;;1.50;1.40;;;15.00;58.10;;;;;;5072912;28;20023;-69
2020/12/07 05:37:25;;;;;;;1.52;1.42;;;15.00;58.10;;;;;;5072672;28;20028;-69
2020/12/07 05:39:51;;;;;;;1.75;1.60;;;15.00;58.10;;;;;;5072798;28;20021;-69
2020/12/07 05:42:18;;;;;;;2.47;1.85;;;15.00;58.10;;;;;;5072777;28;20476;-69
2020/12/07 05:44:48;;;;;;;1.95;1.65;;;14.90;58.10;;;;;;5072763;28;20029;-69
2020/12/07 05:47:18;;;;;;;1.55;1.20;;;14.90;58.10;;;;;;5072773;28;20062;-69
2020/12/07 05:49:48;;;;;;;1.90;1.52;;;14.90;58.20;;;;;;5072769;28;20048;-69
2020/12/07 05:52:29;;;;;;;1.58;1.45;;;14.90;58.30;;;;;;5072497;28;20028;-69
2020/12/07 05:54:56;;;;;;;1.40;1.30;;;14.80;58.30;;;;;;5072707;28;20430;-69
2020/12/07 05:57:27;;;;;;;1.55;1.10;;;14.90;58.40;;;;;;5072514;28;20023;-69
2020/12/07 05:59:56;;;;;;;1.40;1.25;;;14.90;58.50;;;;;;5072360;28;20420;-68
2020/12/07 06:02:22;;;;;;;1.45;1.30;;;14.80;58.40;;;;;;5072172;28;20021;-69
2020/12/07 06:04:50;;;;;;;1.42;1.33;;;14.80;58.50;;;;;;5072625;28;20499;-69
2020/12/07 06:07:18;;;;;;;1.50;1.38;;;14.80;58.70;;;;;;5072601;28;20017;-69
2020/12/07 06:09:45;;;;;;;1.35;1.02;;;14.90;58.90;;;;;;5072540;28;20095;-69
2020/12/07 06:12:22;;;;;;;1.45;1.35;;;15.00;58.90;;;;;;5072383;28;20024;-69
2020/12/07 06:14:49;;;;;;;1.70;1.40;;;15.20;59.00;;;;;;5072561;28;20031;-69
2020/12/07 06:17:24;;;;;;;1.20;1.10;;;15.40;59.00;;;;;;5072570;28;20092;-69
2020/12/07 06:19:52;;;;;;;1.48;1.08;;;15.50;59.20;;;;;;5072573;28;20031;-71
2020/12/07 06:22:20;;;;;;;1.23;0.93;;;15.60;58.90;;;;;;5072326;28;20107;-69
2020/12/07 06:24:48;;;;;;;1.40;0.90;;;15.70;58.80;;;;;;5076101;28;20075;-68
2020/12/07 06:27:15;;;;;;;1.40;1.30;;;15.80;58.80;;;;;;5076468;28;20017;-69
2020/12/07 06:30:05;;;;;;;1.35;1.05;;;15.90;58.70;;;;;;5077567;28;20052;-68
2020/12/07 06:32:51;;;;;;;1.33;1.08;;;16.00;58.70;;;;;;5056390;28;20047;-68
2020/12/07 06:35:20;;;;;;;1.08;0.93;;;16.10;58.40;;;;;;5056225;28;20028;-69
2020/12/07 06:37:51;;;;;;;1.95;1.20;;;16.20;58.40;;;;;;5056169;28;20013;-68
2020/12/07 06:40:19;;;;;;;2.15;0.90;;;16.20;58.20;;;;;;5056347;28;20037;-68
2020/12/07 06:42:47;;;;;;;1.20;1.00;;;16.20;58.10;;;;;;5055970;28;20025;-68
2020/12/07 06:45:30;;;;;;;0.90;0.90;;;16.30;58.10;;;;;;5037863;28;20035;-68
2020/12/07 06:48:05;;;;;;;1.50;1.23;;;16.30;58.00;;;;;;5056002;28;20060;-69
2020/12/07 06:50:35;;;;;;;1.30;1.10;;;16.40;57.90;;;;;;5056051;28;20098;-69
2020/12/07 06:53:01;;;;;;;1.50;1.23;;;16.40;57.80;;;;;;5055945;28;20071;-69
2020/12/07 06:55:27;;;;;;;1.52;1.42;;;16.50;57.80;;;;;;5055896;28;20025;-71
2020/12/07 06:57:53;;;;;;;1.45;1.35;;;16.50;57.60;;;;;;5055766;28;20021;-70
2020/12/07 07:00:20;;;;;;;2.75;1.23;;;16.50;57.50;;;;;;5055765;28;20021;-71
2020/12/07 07:02:51;;;;;;;1.10;1.00;;;16.50;57.40;;;;;;5055198;28;20036;-71
2020/12/07 07:05:23;;;;;;;2.30;1.35;;;16.50;57.30;;;;;;5055365;28;20013;-71
2020/12/07 07:07:49;;;;;;;1.20;1.10;;;16.60;57.40;;;;;;5055640;28;20119;-70
2020/12/07 07:10:16;;;;;;;2.10;1.25;;;16.60;57.40;;;;;;5055435;28;20049;-71
2020/12/07 07:12:44;;;;;;;4.10;1.23;;;16.60;57.50;;;;;;5055506;28;20024;-70
2020/12/07 07:15:11;;;;;;;2.45;1.05;;;16.70;57.60;;;;;;5055551;28;20017;-75
2020/12/07 07:17:39;;;;;;;1.70;1.50;;;16.80;57.90;;;;;;5049271;28;20083;-72
2020/12/07 07:20:06;;;;;;;4.13;1.38;;;16.80;58.00;;;;;;5052516;28;20384;-69
2020/12/07 07:22:34;;;;;;;4.20;1.25;;;16.80;58.10;;;;;;5054931;28;20025;-69
2020/12/07 07:25:08;;;;;;;2.97;1.20;;;16.90;58.00;;;;;;5055268;28;20112;-69
2020/12/07 07:30:19;;;;;;;1.35;1.20;;;17.00;57.90;;;;;;5061123;28;20083;-69
2020/12/07 07:32:50;;;;;;;2.83;1.50;;;17.00;57.70;;;;;;5075186;28;20021;-68
2020/12/07 07:35:19;;;;;;;4.38;2.28;;;17.00;57.70;;;;;;5073256;28;20064;-68
2020/12/07 07:37:44;;;;;;;5.15;1.40;;;17.10;57.80;;;;;;5072754;28;20056;-68
2020/12/07 07:40:16;;;;;;;1.85;1.50;;;17.10;57.70;;;;;;5073109;28;20232;-69
2020/12/07 07:42:50;;;;;;;1.70;1.23;;;17.10;57.60;;;;;;5074617;28;20020;-69
2020/12/07 07:45:22;;;;;;;2.25;1.42;;;17.10;57.60;;;;;;5074956;28;20102;-69
2020/12/07 07:48:01;;;;;;;1.70;1.20;;;17.10;57.50;;;;;;5074766;28;20048;-68
2020/12/07 07:59:33;;;;;;;1.67;1.13;;;17.00;57.40;;;;;;5074588;28;20063;-68
2020/12/07 08:17:48;;;;;;;1.88;1.50;;;16.80;57.20;;;;;;5074381;28;20031;-68
2020/12/07 08:20:16;;;;;;;1.80;1.55;;;16.80;57.20;;;;;;5074343;28;20025;-69
2020/12/07 08:22:41;;;;;;;4.63;1.40;;;16.80;57.30;;;;;;5074046;28;20025;-68
2020/12/07 08:25:07;;;;;;;1.98;1.40;;;16.80;57.30;;;;;;5073751;28;20355;-68
2020/12/07 08:27:34;;;;;;;2.03;1.60;;;16.70;57.30;;;;;;5073999;28;20024;-68
2020/12/07 08:30:08;;;;;;;3.05;1.27;;;16.80;57.30;;;;;;5074995;27;20020;-70
2020/12/07 08:32:34;;;;;;;2.13;1.67;;;16.80;57.40;;;;;;5074032;28;20094;-69
2020/12/07 08:35:10;;;;;;;2.08;1.60;;;16.80;57.30;;;;;;5074172;28;20020;-70
2020/12/07 08:37:45;;;;;;;2.63;1.88;;;16.80;57.30;;;;;;5073972;28;20051;-70
2020/12/07 08:40:11;;;;;;;2.03;1.63;;;16.80;57.20;;;;;;5073545;28;20498;-70
2020/12/07 08:42:37;;;;;;;1.58;1.48;;;16.80;57.40;;;;;;5073552;28;20065;-70
2020/12/07 08:45:03;;;;;;;2.47;1.40;;;16.80;57.20;;;;;;5073642;28;20421;-69
2020/12/07 08:47:29;;;;;;;1.90;1.70;;;16.80;57.30;;;;;;5073490;28;20172;-70
2020/12/07 08:49:54;;;;;;;1.60;1.50;;;16.80;57.30;;;;;;5073737;28;20020;-72
2020/12/07 08:52:20;;;;;;;2.00;1.40;;;16.80;57.30;;;;;;5055449;28;20023;-69
2020/12/07 08:54:46;;;;;;;2.20;1.92;;;16.90;57.20;;;;;;5073603;28;20025;-67
2020/12/07 08:57:11;;;;;;;1.85;1.60;;;16.90;57.30;;;;;;5073152;28;20016;-68
2020/12/07 08:59:37;;;;;;;3.58;2.05;;;16.90;57.20;;;;;;5073233;28;20036;-68
2020/12/07 09:02:02;;;;;;;3.63;1.67;;;17.00;57.10;;;;;;5073349;28;20025;-69
2020/12/07 09:04:28;;;;;;;2.78;2.00;;;17.00;57.00;;;;;;5073371;28;20032;-68
2020/12/07 09:06:54;;;;;;;2.22;2.03;;;17.00;57.00;;;;;;5073352;28;20383;-68
2020/12/07 09:09:20;;;;;;;2.55;2.22;;;17.10;56.90;;;;;;5073287;28;20020;-68
2020/12/07 09:11:46;;;;;;;2.25;1.80;;;17.10;56.80;;;;;;5072824;28;20374;-68
2020/12/07 09:14:12;;;;;;;1.88;1.75;;;17.10;56.80;;;;;;5055003;28;20021;-68
2020/12/07 09:16:38;;;;;;;2.67;1.92;;;17.10;56.80;;;;;;5072799;28;20032;-68
2020/12/07 09:19:03;;;;;;;2.25;1.95;;;17.10;56.70;;;;;;5073135;28;20036;-69
2020/12/07 09:21:29;;;;;;;2.03;1.77;;;17.20;56.60;;;;;;5072893;28;20510;-68
2020/12/07 09:24:02;;;;;;;2.42;2.10;;;17.20;56.60;;;;;;5072846;28;20135;-69
2020/12/07 09:26:27;;;;;;;2.47;1.98;;;17.20;56.60;;;;;;5072977;28;20522;-69
2020/12/07 09:28:53;;;;;;;3.03;1.98;;;17.20;56.40;;;;;;5072968;28;20094;-69
2020/12/07 09:31:25;;;;;;;4.85;2.03;;;17.30;56.50;;;;;;5073865;28;20442;-70
2020/12/07 09:33:50;;;;;;;3.13;2.35;;;17.30;56.50;;;;;;5067938;28;20032;-70
2020/12/07 09:36:16;;;;;;;1.88;1.77;;;17.30;56.50;;;;;;5093047;28;20022;-69
2020/12/07 09:38:41;;;;;;;2.58;2.20;;;17.30;56.50;;;;;;5092814;28;20012;-70
2020/12/07 09:41:07;;;;;;;2.63;2.10;;;17.40;56.50;;;;;;5092761;28;20020;-70
2020/12/07 09:43:33;;;;;;;4.40;2.25;;;17.40;56.60;;;;;;5092970;28;20036;-70
2020/12/07 09:45:59;;;;;;;2.92;2.05;;;17.30;56.60;;;;;;5092761;28;20024;-70
2020/12/07 09:48:24;;;;;;;2.95;2.63;;;17.30;56.70;;;;;;5092970;28;20128;-70
2020/12/07 09:50:50;;;;;;;5.45;3.05;;;17.30;56.90;;;;;;5092956;28;20016;-70
2020/12/07 09:53:18;;;;;;;4.80;3.95;;;17.20;56.60;;;;;;5092616;28;20031;-71
2020/12/07 09:55:45;;;;;;;3.50;3.20;;;17.10;56.70;;;;;;5093032;28;20095;-71
2020/12/07 09:58:11;;;;;;;3.92;3.10;;;17.10;57.00;;;;;;5091788;28;20465;-71
2020/12/07 10:00:36;;;;;;;4.50;3.65;;;17.00;57.10;;;;;;5092867;28;20131;-70
2020/12/07 10:03:02;;;;;;;4.13;3.50;;;17.00;57.10;;;;;;5092814;28;20031;-69
2020/12/07 10:05:28;;;;;;;4.10;3.50;;;17.00;57.00;;;;;;5092848;28;20374;-70
2020/12/07 10:07:53;;;;;;;4.65;3.70;;;16.90;57.20;;;;;;5092776;28;20048;-70
2020/12/07 10:10:19;;;;;;;5.07;3.85;;;16.90;57.20;;;;;;5092348;28;20035;-69
2020/12/07 10:12:45;;;;;;;7.32;3.90;;;16.90;57.30;;;;;;5092702;28;20020;-68
2020/12/07 10:15:10;;;;;;;7.15;4.05;;;16.80;57.40;;;;;;5092654;28;20035;-68
2020/12/07 10:17:36;;;;;;;5.82;3.65;;;16.80;57.50;;;;;;5092644;28;20070;-69
2020/12/07 10:20:03;;;;;;;5.68;3.88;;;16.80;57.50;;;;;;5092520;28;20024;-68
2020/12/07 10:22:29;;;;;;;6.18;4.07;;;16.80;57.50;;;;;;5092217;28;20505;-69
2020/12/07 10:24:55;;;;;;;5.80;4.05;;;16.80;57.40;;;;;;5092826;28;20032;-70
2020/12/07 10:27:20;;;;;;;8.25;4.28;;;16.80;57.40;;;;;;5092748;28;20105;-70
2020/12/07 10:29:46;;;;;;;5.45;4.55;;;16.90;57.30;;;;;;5092742;28;20062;-71
2020/12/07 10:32:17;;;;;;;6.10;4.20;;;16.90;57.20;;;;;;5091979;28;20052;-70
2020/12/07 10:34:43;;;;;;;5.93;4.55;;;16.90;57.20;;;;;;5092617;28;20020;-70
2020/12/07 10:37:10;;;;;;;5.05;4.28;;;16.90;57.10;;;;;;5092867;28;20045;-69
2020/12/07 10:39:35;;;;;;;6.40;4.85;;;16.90;57.20;;;;;;5092349;28;20035;-70
2020/12/07 10:42:02;;;;;;;6.65;4.32;;;16.90;57.00;;;;;;5092706;28;20016;-70
2020/12/07 10:44:27;;;;;;;6.68;4.38;;;16.90;57.00;;;;;;5092087;28;20481;-71
2020/12/07 10:46:53;;;;;;;6.70;4.70;;;17.00;57.10;;;;;;5092280;28;20027;-69
2020/12/07 10:49:18;;;;;;;5.53;4.35;;;17.00;57.10;;;;;;5092487;28;20024;-70
2020/12/07 10:51:47;;;;;;;6.68;5.35;;;17.00;57.00;;;;;;5082492;28;20024;-70
2020/12/07 10:54:13;;;;;;;5.20;4.70;;;17.00;56.90;;;;;;5071918;28;20020;-71
2020/12/07 10:56:42;;;;;;;5.82;4.82;;;17.00;56.80;;;;;;5072264;28;20021;-72
2020/12/07 10:59:08;;;;;;;6.72;5.18;;;17.00;56.80;;;;;;5072105;28;20033;-71
2020/12/07 11:01:34;;;;;;;7.72;5.40;;;17.00;56.80;;;;;;5072080;28;20044;-71
2020/12/07 11:03:59;;;;;;;5.78;5.10;;;17.00;56.80;;;;;;5072014;28;20390;-71
2020/12/07 11:06:31;;;;;;;7.20;5.18;;;17.00;56.90;;;;;;5072120;28;20017;-67
2020/12/07 11:08:57;;;;;;;7.53;5.90;;;17.00;56.90;;;;;;5073022;28;20021;-69
2020/12/07 11:11:23;;;;;;;9.18;6.10;;;17.00;57.00;;;;;;5075473;28;20024;-69
2020/12/07 11:13:49;;;;;;;6.60;4.63;;;16.90;56.60;;;;;;5075451;28;20039;-69
2020/12/07 11:16:16;;;;;;;8.60;5.93;;;16.90;56.80;;;;;;5075068;28;20027;-69
2020/12/07 11:18:43;;;;;;;6.93;5.50;;;16.90;56.80;;;;;;5075083;28;20029;-69
2020/12/07 11:21:12;;;;;;;7.10;5.10;;;16.90;57.40;;;;;;5057189;28;20059;-69
2020/12/07 11:23:41;;;;;;;5.68;4.72;;;16.90;56.80;;;;;;5075179;28;20067;-69
2020/12/07 11:26:06;;;;;;;6.45;5.35;;;16.90;56.70;;;;;;5075318;28;20020;-69
2020/12/07 11:28:32;;;;;;;7.05;5.05;;;16.90;56.70;;;;;;5075216;28;20025;-69
2020/12/07 11:30:57;;;;;;;5.32;4.65;;;16.90;56.70;;;;;;5075651;27;20044;-69
2020/12/07 11:33:23;;;;;;;7.25;5.43;;;16.90;57.30;;;;;;5075206;28;20017;-69
2020/12/07 11:35:49;;;;;;;6.55;5.30;;;16.90;56.70;;;;;;5074925;28;20463;-70
2020/12/07 11:38:18;;;;;;;7.07;5.30;;;16.80;56.50;;;;;;5074669;28;20025;-68
2020/12/07 11:45:42;;;;;;;5.68;4.68;;;16.90;56.60;;;;;;5074937;28;20037;-68
2020/12/07 11:48:09;;;;;;;7.57;4.75;;;16.80;56.50;;;;;;5074509;28;20021;-68
2020/12/07 11:50:35;;;;;;;8.57;5.45;;;16.80;56.50;;;;;;5074551;28;20107;-68
2020/12/07 11:53:00;;;;;;;8.15;5.40;;;16.80;56.60;;;;;;5074864;28;20031;-68
2020/12/07 11:55:26;;;;;;;6.25;5.03;;;16.80;56.50;;;;;;5074488;28;20017;-68
2020/12/07 11:57:51;;;;;;;5.28;4.45;;;16.80;56.50;;;;;;5074647;28;20070;-68
2020/12/07 12:00:17;;;;;;;6.18;5.32;;;16.80;56.50;;;;;;5074693;28;20029;-68
2020/12/07 12:02:42;;;;;;;7.88;4.55;;;16.80;56.50;;;;;;5074535;28;20070;-68
2020/12/07 12:05:08;;;;;;;6.65;5.07;;;16.80;56.30;;;;;;5074893;28;20455;-68
2020/12/07 12:07:33;;;;;;;6.70;4.88;;;16.70;56.30;;;;;;5074228;28;20081;-68
2020/12/07 12:09:59;;;;;;;6.40;5.60;;;16.70;56.30;;;;;;5074422;28;20024;-68
2020/12/07 12:12:25;;;;;;;5.53;4.30;;;16.80;56.30;;;;;;5073922;28;20032;-67
2020/12/07 12:14:51;;;;;;;7.28;5.40;;;16.70;56.30;;;;;;5074355;28;20127;-68
2020/12/07 12:17:16;;;;;;;7.45;5.38;;;16.70;56.30;;;;;;5074424;28;20023;-68
2020/12/07 12:19:42;;;;;;;5.93;4.90;;;16.70;56.30;;;;;;5065897;28;20478;-68
2020/12/07 12:22:07;;;;;;;6.47;4.88;;;16.70;56.30;;;;;;5073403;28;20028;-68
2020/12/07 12:24:33;;;;;;;7.60;5.47;;;16.60;56.20;;;;;;5074034;28;20086;-68
2020/12/07 12:26:58;;;;;;;7.65;5.13;;;16.70;56.30;;;;;;5074062;28;20031;-68
2020/12/07 12:29:24;;;;;;;6.45;5.53;;;16.70;56.30;;;;;;5073681;28;20029;-68
2020/12/07 12:31:50;;;;;;;6.97;5.15;;;16.70;56.30;;;;;;5074687;27;20049;-68
2020/12/07 12:34:15;;;;;;;6.70;5.20;;;16.70;56.30;;;;;;5073944;28;20534;-68
2020/12/07 12:36:43;;;;;;;7.00;4.95;;;16.70;56.30;;;;;;5073719;28;20024;-68
2020/12/07 12:39:08;;;;;;;9.23;5.10;;;16.70;56.30;;;;;;5073498;28;20020;-68
2020/12/07 12:41:34;;;;;;;7.30;5.82;;;16.70;56.30;;;;;;5073501;28;20031;-68
2020/12/07 12:44:01;;;;;;;7.05;5.43;;;16.70;56.90;;;;;;5073347;28;20402;-68
2020/12/07 12:46:26;;;;;;;7.03;5.82;;;16.70;56.30;;;;;;5073618;28;20021;-69
2020/12/07 12:48:52;;;;;;;6.93;5.30;;;16.80;56.70;;;;;;5073558;28;20032;-68
2020/12/07 12:51:17;;;;;;;7.10;6.13;;;16.80;57.20;;;;;;5073414;28;20025;-68
2020/12/07 12:53:43;;;;;;;9.40;6.45;;;16.90;57.50;;;;;;5071585;28;20025;-69
2020/12/07 12:56:10;;;;;;;9.43;6.68;;;16.80;57.80;;;;;;5072384;28;20020;-69
2020/12/07 12:58:36;;;;;;;9.27;6.72;;;16.90;58.00;;;;;;5072388;28;20021;-69
2020/12/07 13:01:04;;;;;;;9.20;6.85;;;16.90;58.10;;;;;;5072633;28;20040;-69
2020/12/07 13:03:29;;;;;;;10.02;7.25;;;16.90;58.20;;;;;;5072363;28;20039;-69
2020/12/07 13:05:55;;;;;;;10.65;8.10;;;16.90;58.40;;;;;;5072390;28;20024;-69
2020/12/07 13:08:21;;;;;;;10.48;7.90;;;16.90;58.70;;;;;;5073133;28;20107;-69
2020/12/07 13:10:50;;;;;;;9.93;7.63;;;16.90;58.80;;;;;;5073343;28;20458;-68
2020/12/07 13:13:16;;;;;;;10.90;7.88;;;16.90;58.90;;;;;;5072870;28;20505;-69
2020/12/07 13:15:50;;;;;;;11.85;8.43;;;16.90;58.90;;;;;;5073187;28;20024;-68
2020/12/07 13:18:16;;;;;;;10.98;8.50;;;16.90;59.10;;;;;;5073231;28;20390;-69
2020/12/07 13:21:07;;;;;;;12.43;8.38;;;17.00;59.30;;;;;;5072965;28;20025;-69